Time;durP1;ratioP1;P1;durP2;ratioP2;P2;SDS_P1;SDS_P2;PMS_P1;PMS_P2;Temp;Humidity;BMP_temperature;BMP_pressure;BME280_temperature;BME280_humidity;BME280_pressure;Samples;Min_cycle;Max_cycle;Signal;HPM_P1;HPM_P2
2023/10/16 00:00:29;;;;;;;;;;;;;;;;;;6138040;23;19971;-86
2023/10/16 00:02:59;;;;;;;;;;;;;;;;;;6133490;23;20523;-86
2023/10/16 00:05:25;;;;;;;;;;;;;;;;;;6135820;23;20351;-86
2023/10/16 00:07:51;;;;;;;;;;;;;;;;;;6086939;23;19974;-86
2023/10/16 00:10:17;;;;;;;;;;;;;;;;;;6107688;23;19920;-86
2023/10/16 00:12:43;;;;;;;;;;;;;;;;;;6107778;23;20398;-86
2023/10/16 00:15:09;;;;;;;;;;;;;;;;;;6111082;23;20257;-86
2023/10/16 00:17:35;;;;;;;;;;;;;;;;;;6138458;23;19921;-86
2023/10/16 00:20:01;;;;;;;;;;;;;;;;;;6111957;23;20344;-86
2023/10/16 00:22:27;;;;;;;;;;;;;;;;;;6140668;23;19920;-86
2023/10/16 00:24:58;;;;;;;;;;;;;;;;;;6085886;23;19920;-86
2023/10/16 00:27:24;;;;;;;;;;;;;;;;;;6112536;23;19936;-86
2023/10/16 00:29:50;;;;;;;;;;;;;;;;;;6138439;23;19932;-86
2023/10/16 00:32:17;;;;;;;;;;;;;;;;;;6140199;23;19920;-86
2023/10/16 00:34:44;;;;;;;;;;;;;;;;;;6137101;23;19964;-86
2023/10/16 00:37:10;;;;;;;;;;;;;;;;;;6139327;23;19959;-86
2023/10/16 00:39:37;;;;;;;;;;;;;;;;;;6111170;23;19977;-86
2023/10/16 00:42:08;;;;;;;;;;;;;;;;;;6137170;23;20314;-86
2023/10/16 00:44:34;;;;;;;;;;;;;;;;;;6117918;23;20526;-86
2023/10/16 00:47:01;;;;;;;;;;;;;;;;;;6146047;23;19948;-86
2023/10/16 00:49:28;;;;;;;;;;;;;;;;;;6134954;23;19921;-86
2023/10/16 00:51:54;;;;;;;;;;;;;;;;;;6141561;23;19927;-86
2023/10/16 00:54:26;;;;;;;;;;;;;;;;;;6093743;23;19924;-86
2023/10/16 00:56:52;;;;;;;;;;;;;;;;;;6088022;23;19947;-86
2023/10/16 00:59:18;;;;;;;;;;;;;;;;;;6117400;23;20014;-86
2023/10/16 01:01:44;;;;;;;;;;;;;;;;;;6116900;23;19927;-87
2023/10/16 01:04:10;;;;;;;;;;;;;;;;;;6116804;23;19925;-86
2023/10/16 01:06:36;;;;;;;;;;;;;;;;;;6139405;23;19921;-86
2023/10/16 01:09:06;;;;;;;;;;;;;;;;;;6090544;23;20356;-86
2023/10/16 01:11:37;;;;;;;;;;;;;;;;;;6139680;23;19924;-86
2023/10/16 01:14:03;;;;;;;;;;;;;;;;;;6111295;23;19924;-86
2023/10/16 01:16:29;;;;;;;;;;;;;;;;;;6141461;23;20242;-86
2023/10/16 01:18:55;;;;;;;;;;;;;;;;;;6140771;23;19982;-87
2023/10/16 01:21:21;;;;;;;;;;;;;;;;;;6114594;23;19925;-86
2023/10/16 01:23:47;;;;;;;;;;;;;;;;;;6140152;23;20358;-86
2023/10/16 01:26:13;;;;;;;;;;;;;;;;;;6143716;23;19921;-86
2023/10/16 01:28:39;;;;;;;;;;;;;;;;;;6114093;23;19921;-86
2023/10/16 01:31:05;;;;;;;;;;;;;;;;;;6141565;23;19928;-85
2023/10/16 01:33:31;;;;;;;;;;;;;;;;;;6143593;23;19917;-85
2023/10/16 01:35:57;;;;;;;;;;;;;;;;;;6140622;23;20349;-86
2023/10/16 01:38:24;;;;;;;;;;;;;;;;;;6142347;23;19924;-85
2023/10/16 01:41:08;;;;;;;;;;;;;;;;;;6141359;23;20793;-86
2023/10/16 01:43:37;;;;;;;;;;;;;;;;;;6142426;23;19921;-86
2023/10/16 01:46:03;;;;;;;;;;;;;;;;;;6143449;23;20432;-86
2023/10/16 01:48:29;;;;;;;;;;;;;;;;;;6116660;23;19920;-86
2023/10/16 01:50:55;;;;;;;;;;;;;;;;;;6114125;23;20639;-86
2023/10/16 01:53:25;;;;;;;;;;;;;;;;;;6116348;23;19952;-86
2023/10/16 01:55:51;;;;;;;;;;;;;;;;;;6090041;23;19924;-85
2023/10/16 01:58:17;;;;;;;;;;;;;;;;;;6116016;23;19921;-86
2023/10/16 02:00:43;;;;;;;;;;;;;;;;;;6088249;23;19983;-86
2023/10/16 02:03:09;;;;;;;;;;;;;;;;;;6093686;23;19928;-86
2023/10/16 02:05:35;;;;;;;;;;;;;;;;;;6141833;23;19920;-85
2023/10/16 02:08:01;;;;;;;;;;;;;;;;;;6142709;23;20265;-86
2023/10/16 02:10:27;;;;;;;;;;;;;;;;;;6145292;23;19920;-86
2023/10/16 02:12:53;;;;;;;;;;;;;;;;;;6139025;23;20082;-86
2023/10/16 02:15:21;;;;;;;;;;;;;;;;;;6118578;23;19971;-86
2023/10/16 02:17:49;;;;;;;;;;;;;;;;;;6140664;23;20007;-86
2023/10/16 02:20:17;;;;;;;;;;;;;;;;;;6143509;23;20348;-86
2023/10/16 02:22:43;;;;;;;;;;;;;;;;;;6140423;23;19924;-86
2023/10/16 02:25:11;;;;;;;;;;;;;;;;;;6115523;23;19920;-86
2023/10/16 02:27:37;;;;;;;;;;;;;;;;;;6113392;23;19951;-86
2023/10/16 02:32:49;;;;;;;;;;;;;;;;;;6137176;23;19924;-86
2023/10/16 02:35:15;;;;;;;;;;;;;;;;;;6139451;23;20246;-85
2023/10/16 02:37:41;;;;;;;;;;;;;;;;;;6108795;23;20451;-86
2023/10/16 02:40:11;;;;;;;;;;;;;;;;;;6112383;23;19921;-86
2023/10/16 02:42:38;;;;;;;;;;;;;;;;;;6135108;23;19916;-86
2023/10/16 02:45:10;;;;;;;;;;;;;;;;;;6110607;23;20237;-86
2023/10/16 02:47:37;;;;;;;;;;;;;;;;;;6135756;23;20016;-86
2023/10/16 02:50:07;;;;;;;;;;;;;;;;;;6139239;23;19988;-86
2023/10/16 02:52:33;;;;;;;;;;;;;;;;;;6136775;23;19979;-86
2023/10/16 02:55:00;;;;;;;;;;;;;;;;;;6134252;23;20380;-87
2023/10/16 02:57:26;;;;;;;;;;;;;;;;;;6127205;23;19921;-86
2023/10/16 02:59:52;;;;;;;;;;;;;;;;;;6111303;23;19921;-86
2023/10/16 03:02:17;;;;;;;;;;;;;;;;;;6112528;23;20342;-86
2023/10/16 03:04:44;;;;;;;;;;;;;;;;;;6139010;23;19991;-86
2023/10/16 03:07:10;;;;;;;;;;;;;;;;;;6142058;23;19924;-86
2023/10/16 03:09:36;;;;;;;;;;;;;;;;;;6136805;23;19920;-86
2023/10/16 03:12:08;;;;;;;;;;;;;;;;;;6087651;23;19920;-86
2023/10/16 03:14:57;;;;;;;;;;;;;;;;;;6138681;23;20031;-86
2023/10/16 03:17:25;;;;;;;;;;;;;;;;;;6089015;23;19932;-86
2023/10/16 03:19:54;;;;;;;;;;;;;;;;;;6109736;23;19939;-86
2023/10/16 03:22:21;;;;;;;;;;;;;;;;;;6112415;23;19924;-86
2023/10/16 03:24:47;;;;;;;;;;;;;;;;;;6136676;23;20086;-86
2023/10/16 03:27:26;;;;;;;;;;;;;;;;;;6137788;23;20258;-86
2023/10/16 03:29:54;;;;;;;;;;;;;;;;;;6113158;23;19924;-86
2023/10/16 03:32:20;;;;;;;;;;;;;;;;;;6142484;23;20679;-86
2023/10/16 03:34:46;;;;;;;;;;;;;;;;;;6112383;23;19931;-86
2023/10/16 03:37:14;;;;;;;;;;;;;;;;;;6139649;23;19921;-86
2023/10/16 03:39:40;;;;;;;;;;;;;;;;;;6139545;23;20346;-86
2023/10/16 03:42:09;;;;;;;;;;;;;;;;;;6117198;23;20338;-86
2023/10/16 03:44:36;;;;;;;;;;;;;;;;;;6115870;23;19920;-86
2023/10/16 03:47:05;;;;;;;;;;;;;;;;;;6090003;23;19921;-86
2023/10/16 03:49:31;;;;;;;;;;;;;;;;;;6115268;23;20397;-86
2023/10/16 03:51:57;;;;;;;;;;;;;;;;;;6113290;23;20250;-85
2023/10/16 03:54:35;;;;;;;;;;;;;;;;;;6137661;23;19920;-85
2023/10/16 03:57:01;;;;;;;;;;;;;;;;;;6115687;23;20392;-86
2023/10/16 03:59:30;;;;;;;;;;;;;;;;;;6139002;23;19924;-85
2023/10/16 04:01:56;;;;;;;;;;;;;;;;;;6082525;23;20708;-86
2023/10/16 04:04:25;;;;;;;;;;;;;;;;;;6140753;23;19995;-86
2023/10/16 04:06:52;;;;;;;;;;;;;;;;;;6137881;23;19939;-86
2023/10/16 04:09:19;;;;;;;;;;;;;;;;;;6113940;23;19948;-86
2023/10/16 04:11:54;;;;;;;;;;;;;;;;;;6137411;23;19925;-86
2023/10/16 04:14:44;;;;;;;;;;;;;;;;;;6113722;23;19924;-86
2023/10/16 04:17:10;;;;;;;;;;;;;;;;;;6115628;23;19927;-86
2023/10/16 04:19:36;;;;;;;;;;;;;;;;;;6140991;23;19921;-86
2023/10/16 04:22:09;;;;;;;;;;;;;;;;;;6093676;23;19924;-86
2023/10/16 04:24:44;;;;;;;;;;;;;;;;;;6143133;23;19927;-85
2023/10/16 04:32:37;;;;;;;;;;;;;;;;;;6114498;23;19924;-87
2023/10/16 04:35:27;;;;;;;;;;;;;;;;;;6142699;23;20052;-86
2023/10/16 04:37:54;;;;;;;;;;;;;;;;;;6137764;23;19921;-86
2023/10/16 04:43:13;;;;;;;;;;;;;;;;;;6141354;23;20250;-86
2023/10/16 04:45:39;;;;;;;;;;;;;;;;;;6138172;23;19921;-86
2023/10/16 04:50:37;;;;;;;;;;;;;;;;;;6139500;23;19928;-86
2023/10/16 05:11:24;;;;;;;;;;;;;;;;;;6141862;23;20293;-86
2023/10/16 05:14:19;;;;;;;;;;;;;;;;;;6138317;23;19924;-86
2023/10/16 05:22:02;;;;;;;;;;;;;;;;;;6111270;23;19959;-88
2023/10/16 06:16:40;;;;;;;;;;;;;;;;;;6111493;23;19925;-89
2023/10/16 06:19:16;;;;;;;;;;;;;;;;;;6092523;23;19921;-89
2023/10/16 06:21:45;;;;;;;;;;;;;;;;;;6086975;23;20254;-88
2023/10/16 06:24:25;;;;;;;;;;;;;;;;;;6117825;23;20024;-89
2023/10/16 06:26:51;;;;;;;;;;;;;;;;;;6090793;23;20042;-89
2023/10/16 06:29:17;;;;;;;;;;;;;;;;;;6092119;23;19924;-89
2023/10/16 06:32:07;;;;;;;;;;;;;;;;;;6090682;23;20255;-88
2023/10/16 06:34:31;;;;;;;;;;;;;;;;;;6116606;23;19968;-89
2023/10/16 06:36:57;;;;;;;;;;;;;;;;;;6113289;23;19924;-89
2023/10/16 06:39:23;;;;;;;;;;;;;;;;;;6116782;23;19971;-89
2023/10/16 06:42:02;;;;;;;;;;;;;;;;;;6114303;23;19948;-89
2023/10/16 06:44:28;;;;;;;;;;;;;;;;;;6120089;23;20345;-89
2023/10/16 06:46:58;;;;;;;;;;;;;;;;;;6143012;23;19921;-89
2023/10/16 06:49:26;;;;;;;;;;;;;;;;;;6095823;23;19927;-89
2023/10/16 06:51:52;;;;;;;;;;;;;;;;;;6093345;23;20259;-89
2023/10/16 06:54:18;;;;;;;;;;;;;;;;;;6119872;23;20250;-89
2023/10/16 06:56:44;;;;;;;;;;;;;;;;;;6093065;23;19939;-89
2023/10/16 06:59:16;;;;;;;;;;;;;;;;;;6117855;23;19932;-89
2023/10/16 07:01:43;;;;;;;;;;;;;;;;;;6093956;23;19928;-89
2023/10/16 07:04:11;;;;;;;;;;;;;;;;;;6122044;23;19927;-89
2023/10/16 07:06:38;;;;;;;;;;;;;;;;;;6143623;23;19927;-89
2023/10/16 07:09:04;;;;;;;;;;;;;;;;;;6120711;23;19924;-89
2023/10/16 07:11:30;;;;;;;;;;;;;;;;;;6146801;23;19990;-89
2023/10/16 07:13:56;;;;;;;;;;;;;;;;;;6117528;23;20334;-89
2023/10/16 07:16:22;;;;;;;;;;;;;;;;;;6091726;23;19929;-89
2023/10/16 07:18:53;;;;;;;;;;;;;;;;;;6143738;23;20040;-89
2023/10/16 07:21:20;;;;;;;;;;;;;;;;;;6119733;23;19924;-89
2023/10/16 07:23:46;;;;;;;;;;;;;;;;;;6119085;23;19920;-89
2023/10/16 07:26:18;;;;;;;;;;;;;;;;;;6120331;23;19948;-89
2023/10/16 07:28:51;;;;;;;;;;;;;;;;;;6118042;23;19917;-89
2023/10/16 07:31:17;;;;;;;;;;;;;;;;;;6094899;23;20307;-89
2023/10/16 07:33:43;;;;;;;;;;;;;;;;;;6092980;23;19924;-89
2023/10/16 07:36:12;;;;;;;;;;;;;;;;;;6120190;23;19996;-89
2023/10/16 07:38:38;;;;;;;;;;;;;;;;;;6116285;23;19920;-89
2023/10/16 07:41:04;;;;;;;;;;;;;;;;;;6118918;23;19927;-89
2023/10/16 07:43:32;;;;;;;;;;;;;;;;;;6120573;23;19963;-89
2023/10/16 07:48:37;;;;;;;;;;;;;;;;;;6119073;23;19991;-89
2023/10/16 07:51:06;;;;;;;;;;;;;;;;;;6121374;23;19921;-89
2023/10/16 07:53:33;;;;;;;;;;;;;;;;;;6146601;23;19939;-90
2023/10/16 07:55:59;;;;;;;;;;;;;;;;;;6118657;23;20330;-90
2023/10/16 07:58:33;;;;;;;;;;;;;;;;;;6120672;23;19916;-89
2023/10/16 08:01:16;;;;;;;;;;;;;;;;;;6118423;23;19917;-89
2023/10/16 08:03:42;;;;;;;;;;;;;;;;;;6117802;23;20254;-90
2023/10/16 08:06:17;;;;;;;;;;;;;;;;;;6119706;23;19936;-90
2023/10/16 08:08:48;;;;;;;;;;;;;;;;;;6092945;23;19936;-90
2023/10/16 08:11:18;;;;;;;;;;;;;;;;;;6095397;23;19925;-89
2023/10/16 08:13:47;;;;;;;;;;;;;;;;;;6118696;23;19920;-89
2023/10/16 08:16:17;;;;;;;;;;;;;;;;;;6120782;23;20298;-89
2023/10/16 08:18:42;;;;;;;;;;;;;;;;;;6089192;23;19924;-89
2023/10/16 08:21:09;;;;;;;;;;;;;;;;;;6119999;23;19921;-90
2023/10/16 08:23:35;;;;;;;;;;;;;;;;;;6145742;23;19940;-89
2023/10/16 08:26:14;;;;;;;;;;;;;;;;;;6119129;23;20039;-90
2023/10/16 08:28:44;;;;;;;;;;;;;;;;;;6118306;23;20476;-89
2023/10/16 08:31:32;;;;;;;;;;;;;;;;;;6119766;23;19920;-90
2023/10/16 08:33:59;;;;;;;;;;;;;;;;;;6115658;23;19920;-90
2023/10/16 08:36:26;;;;;;;;;;;;;;;;;;6096174;23;19924;-90
2023/10/16 08:38:52;;;;;;;;;;;;;;;;;;6117998;23;19916;-89
2023/10/16 08:41:21;;;;;;;;;;;;;;;;;;6117138;23;19921;-90
2023/10/16 08:44:03;;;;;;;;;;;;;;;;;;6113854;23;19961;-90
2023/10/16 08:46:34;;;;;;;;;;;;;;;;;;6114821;23;19928;-90
2023/10/16 08:49:02;;;;;;;;;;;;;;;;;;6113547;23;19928;-88
2023/10/16 08:51:29;;;;;;;;;;;;;;;;;;6118616;23;20023;-89
2023/10/16 08:54:00;;;;;;;;;;;;;;;;;;6112092;23;20232;-89
2023/10/16 08:56:26;;;;;;;;;;;;;;;;;;6095387;23;19924;-90
2023/10/16 08:58:54;;;;;;;;;;;;;;;;;;6088067;23;19928;-90
2023/10/16 09:01:20;;;;;;;;;;;;;;;;;;6115948;23;19960;-90
2023/10/16 09:03:48;;;;;;;;;;;;;;;;;;6115102;23;20301;-89
2023/10/16 09:06:14;;;;;;;;;;;;;;;;;;6095512;23;19923;-89
2023/10/16 09:08:41;;;;;;;;;;;;;;;;;;6094944;23;19925;-89
2023/10/16 09:11:10;;;;;;;;;;;;;;;;;;6113294;23;20076;-89
2023/10/16 09:13:39;;;;;;;;;;;;;;;;;;6059840;23;19940;-89
2023/10/16 09:16:07;;;;;;;;;;;;;;;;;;6064692;23;19932;-89
2023/10/16 09:18:34;;;;;;;;;;;;;;;;;;6065351;23;19988;-89
2023/10/16 09:21:00;;;;;;;;;;;;;;;;;;6085686;23;19932;-90
2023/10/16 09:23:26;;;;;;;;;;;;;;;;;;6088100;23;20298;-89
2023/10/16 09:25:55;;;;;;;;;;;;;;;;;;6061931;23;19924;-89
2023/10/16 09:28:22;;;;;;;;;;;;;;;;;;6086774;23;19921;-90
2023/10/16 09:30:49;;;;;;;;;;;;;;;;;;6086850;23;20009;-89
2023/10/16 09:33:15;;;;;;;;;;;;;;;;;;6089825;23;19956;-90
2023/10/16 09:35:44;;;;;;;;;;;;;;;;;;6061584;23;19970;-90
2023/10/16 09:38:19;;;;;;;;;;;;;;;;;;6062219;23;19983;-89
2023/10/16 09:40:45;;;;;;;;;;;;;;;;;;6087276;23;19987;-89
2023/10/16 09:43:27;;;;;;;;;;;;;;;;;;6086126;23;19921;-89
2023/10/16 09:46:33;;;;;;;;;;;;;;;;;;6109243;23;19921;-90
2023/10/16 09:48:39;;;;;;;;;;;;;;;;;;6084565;23;19971;-89
2023/10/16 09:51:08;;;;;;;;;;;;;;;;;;6066544;23;19921;-90
2023/10/16 09:53:35;;;;;;;;;;;;;;;;;;6114631;23;20335;-90
2023/10/16 09:56:02;;;;;;;;;;;;;;;;;;6063462;23;19972;-90
2023/10/16 09:58:32;;;;;;;;;;;;;;;;;;6064520;23;19927;-90
2023/10/16 10:01:06;;;;;;;;;;;;;;;;;;6088467;23;19917;-90
2023/10/16 10:03:32;;;;;;;;;;;;;;;;;;6063843;23;20043;-90
2023/10/16 10:06:08;;;;;;;;;;;;;;;;;;6083460;23;19932;-90
2023/10/16 10:11:38;;;;;;;;;;;;;;;;;;6093743;23;19932;-90
2023/10/16 10:14:20;;;;;;;;;;;;;;;;;;6089853;23;19947;-90
2023/10/16 10:16:46;;;;;;;;;;;;;;;;;;6113044;23;19924;-89
2023/10/16 10:19:12;;;;;;;;;;;;;;;;;;6092043;23;19931;-89
2023/10/16 10:21:44;;;;;;;;;;;;;;;;;;6113998;23;19921;-90
2023/10/16 10:24:15;;;;;;;;;;;;;;;;;;6101837;23;21975;-89
2023/10/16 10:26:41;;;;;;;;;;;;;;;;;;6089712;23;19920;-90
2023/10/16 10:29:09;;;;;;;;;;;;;;;;;;6092025;23;19928;-90
2023/10/16 10:31:38;;;;;;;;;;;;;;;;;;6094371;23;19920;-90
2023/10/16 10:34:11;;;;;;;;;;;;;;;;;;6095490;23;19920;-91
2023/10/16 10:36:39;;;;;;;;;;;;;;;;;;6113844;23;20334;-91
2023/10/16 10:39:05;;;;;;;;;;;;;;;;;;6092106;23;19921;-90
2023/10/16 10:41:31;;;;;;;;;;;;;;;;;;6117090;23;19927;-90
2023/10/16 10:44:08;;;;;;;;;;;;;;;;;;6116263;23;19921;-90
2023/10/16 10:46:34;;;;;;;;;;;;;;;;;;6116107;23;19928;-90
2023/10/16 10:49:01;;;;;;;;;;;;;;;;;;6090734;23;19920;-90
2023/10/16 10:51:29;;;;;;;;;;;;;;;;;;6117789;23;20022;-90
2023/10/16 10:53:55;;;;;;;;;;;;;;;;;;6114472;23;20299;-90
2023/10/16 10:56:21;;;;;;;;;;;;;;;;;;6116552;23;19935;-90
2023/10/16 10:58:47;;;;;;;;;;;;;;;;;;6116307;23;19920;-91
2023/10/16 11:01:18;;;;;;;;;;;;;;;;;;6116594;23;19950;-90
2023/10/16 11:03:48;;;;;;;;;;;;;;;;;;6116537;23;20254;-90
2023/10/16 11:06:15;;;;;;;;;;;;;;;;;;6091442;23;19967;-89
2023/10/16 11:08:41;;;;;;;;;;;;;;;;;;6092171;23;20415;-91
2023/10/16 11:11:08;;;;;;;;;;;;;;;;;;6112337;23;19925;-90
2023/10/16 11:13:37;;;;;;;;;;;;;;;;;;6089148;23;20333;-90
2023/10/16 11:16:07;;;;;;;;;;;;;;;;;;6064583;23;19980;-91
2023/10/16 11:18:37;;;;;;;;;;;;;;;;;;6060216;23;19983;-90
2023/10/16 11:21:06;;;;;;;;;;;;;;;;;;6116193;23;19928;-90
2023/10/16 11:23:32;;;;;;;;;;;;;;;;;;6090073;23;19921;-90
2023/10/16 11:26:05;;;;;;;;;;;;;;;;;;6085716;23;19986;-92
2023/10/16 11:28:36;;;;;;;;;;;;;;;;;;6065187;23;20359;-91
2023/10/16 11:31:09;;;;;;;;;;;;;;;;;;6062786;23;19921;-92
2023/10/16 11:33:45;;;;;;;;;;;;;;;;;;6063997;23;19920;-90
2023/10/16 11:36:13;;;;;;;;;;;;;;;;;;6087179;23;20068;-91
2023/10/16 11:38:39;;;;;;;;;;;;;;;;;;6060102;23;19980;-91
2023/10/16 11:41:16;;;;;;;;;;;;;;;;;;6066490;23;20330;-91
2023/10/16 11:43:47;;;;;;;;;;;;;;;;;;6059288;23;19921;-91
2023/10/16 11:46:29;;;;;;;;;;;;;;;;;;6064057;23;19953;-91
2023/10/16 11:48:56;;;;;;;;;;;;;;;;;;6086277;23;19924;-91
2023/10/16 11:51:22;;;;;;;;;;;;;;;;;;6063961;23;19923;-91
2023/10/16 11:53:48;;;;;;;;;;;;;;;;;;6061335;23;20242;-91
2023/10/16 11:56:18;;;;;;;;;;;;;;;;;;6064021;23;19925;-91
2023/10/16 11:58:44;;;;;;;;;;;;;;;;;;6062440;23;20298;-91
2023/10/16 12:01:11;;;;;;;;;;;;;;;;;;6088475;23;19925;-91
2023/10/16 12:03:37;;;;;;;;;;;;;;;;;;6061361;23;19964;-90
2023/10/16 12:06:07;;;;;;;;;;;;;;;;;;6089259;23;20412;-91
2023/10/16 12:08:33;;;;;;;;;;;;;;;;;;6065059;23;20356;-91
2023/10/16 12:11:01;;;;;;;;;;;;;;;;;;6065171;23;19960;-91
2023/10/16 12:13:31;;;;;;;;;;;;;;;;;;6089295;23;19991;-91
2023/10/16 12:15:58;;;;;;;;;;;;;;;;;;6088709;23;19948;-91
2023/10/16 12:18:26;;;;;;;;;;;;;;;;;;6115908;23;19920;-90
2023/10/16 12:20:52;;;;;;;;;;;;;;;;;;6110718;23;20388;-90
2023/10/16 12:23:20;;;;;;;;;;;;;;;;;;6117428;23;19916;-91
2023/10/16 12:25:46;;;;;;;;;;;;;;;;;;6113168;23;20257;-91
2023/10/16 12:28:12;;;;;;;;;;;;;;;;;;6114500;23;19920;-91
2023/10/16 12:30:38;;;;;;;;;;;;;;;;;;6107145;23;19921;-91
2023/10/16 12:33:07;;;;;;;;;;;;;;;;;;6105019;23;19928;-91
2023/10/16 12:35:34;;;;;;;;;;;;;;;;;;6137395;23;19924;-91
2023/10/16 12:38:04;;;;;;;;;;;;;;;;;;6114750;23;19971;-91
2023/10/16 12:40:39;;;;;;;;;;;;;;;;;;6118985;23;19924;-90
2023/10/16 12:43:09;;;;;;;;;;;;;;;;;;6117746;23;19920;-91
2023/10/16 12:45:39;;;;;;;;;;;;;;;;;;6118988;23;20334;-91
2023/10/16 12:48:05;;;;;;;;;;;;;;;;;;6092342;23;19924;-91
2023/10/16 12:50:31;;;;;;;;;;;;;;;;;;6092785;23;19967;-91
2023/10/16 12:52:57;;;;;;;;;;;;;;;;;;6093407;23;20015;-90
2023/10/16 12:55:23;;;;;;;;;;;;;;;;;;6095645;23;19924;-91
2023/10/16 12:57:49;;;;;;;;;;;;;;;;;;6092032;23;19947;-91
2023/10/16 13:00:16;;;;;;;;;;;;;;;;;;6096180;23;19920;-91
2023/10/16 13:02:42;;;;;;;;;;;;;;;;;;6115408;23;20006;-91
2023/10/16 13:05:13;;;;;;;;;;;;;;;;;;6117587;23;19927;-91
2023/10/16 13:07:41;;;;;;;;;;;;;;;;;;6093274;23;19921;-91
2023/10/16 13:10:08;;;;;;;;;;;;;;;;;;6093720;23;19995;-90
2023/10/16 13:12:36;;;;;;;;;;;;;;;;;;6093996;23;19983;-90
2023/10/16 13:15:09;;;;;;;;;;;;;;;;;;6095545;23;19936;-92
2023/10/16 13:17:38;;;;;;;;;;;;;;;;;;6117308;23;19939;-91
2023/10/16 13:20:04;;;;;;;;;;;;;;;;;;6094821;23;20330;-91
2023/10/16 13:22:31;;;;;;;;;;;;;;;;;;6117300;23;19925;-91
2023/10/16 13:24:57;;;;;;;;;;;;;;;;;;6118170;23;19921;-91
2023/10/16 13:27:23;;;;;;;;;;;;;;;;;;6090683;23;19947;-92
2023/10/16 13:29:51;;;;;;;;;;;;;;;;;;6091369;23;19971;-90
2023/10/16 13:32:20;;;;;;;;;;;;;;;;;;6114499;23;19960;-91
2023/10/16 13:34:46;;;;;;;;;;;;;;;;;;6092549;23;19975;-91
2023/10/16 13:37:12;;;;;;;;;;;;;;;;;;6095034;23;19928;-91
2023/10/16 13:39:41;;;;;;;;;;;;;;;;;;6090462;23;19920;-91
2023/10/16 13:42:10;;;;;;;;;;;;;;;;;;6091575;23;20301;-91
2023/10/16 13:44:36;;;;;;;;;;;;;;;;;;6091566;23;19931;-92
2023/10/16 13:47:05;;;;;;;;;;;;;;;;;;6087765;23;20341;-91
2023/10/16 13:49:31;;;;;;;;;;;;;;;;;;6117758;23;19917;-90
2023/10/16 13:51:58;;;;;;;;;;;;;;;;;;6089785;23;20329;-91
2023/10/16 13:54:24;;;;;;;;;;;;;;;;;;6091431;23;20408;-90
2023/10/16 13:56:50;;;;;;;;;;;;;;;;;;6089993;23;19924;-91
2023/10/16 13:59:18;;;;;;;;;;;;;;;;;;6114713;23;20235;-91
2023/10/16 14:01:44;;;;;;;;;;;;;;;;;;6113516;23;19920;-91
2023/10/16 14:04:21;;;;;;;;;;;;;;;;;;6093053;23;19925;-91
2023/10/16 14:06:51;;;;;;;;;;;;;;;;;;6115409;23;20338;-91
2023/10/16 14:09:20;;;;;;;;;;;;;;;;;;6116688;23;20401;-90
2023/10/16 14:11:49;;;;;;;;;;;;;;;;;;6076256;23;19952;-91
2023/10/16 14:14:18;;;;;;;;;;;;;;;;;;6061744;23;19948;-91
2023/10/16 14:16:46;;;;;;;;;;;;;;;;;;6084264;23;19960;-91
2023/10/16 14:19:13;;;;;;;;;;;;;;;;;;6113682;23;19917;-91
2023/10/16 14:21:40;;;;;;;;;;;;;;;;;;6062460;23;19917;-91
2023/10/16 14:24:06;;;;;;;;;;;;;;;;;;6065665;23;19936;-91
2023/10/16 14:26:34;;;;;;;;;;;;;;;;;;6114612;23;19921;-91
2023/10/16 14:28:59;;;;;;;;;;;;;;;;;;6085616;23;20446;-92
2023/10/16 14:31:28;;;;;;;;;;;;;;;;;;6112495;23;20282;-91
2023/10/16 14:33:54;;;;;;;;;;;;;;;;;;6061338;23;20092;-91
2023/10/16 14:36:22;;;;;;;;;;;;;;;;;;6085046;23;20035;-90
2023/10/16 14:38:48;;;;;;;;;;;;;;;;;;6089578;23;19987;-92
2023/10/16 14:41:17;;;;;;;;;;;;;;;;;;6090097;23;19917;-90
2023/10/16 14:43:45;;;;;;;;;;;;;;;;;;6060880;23;19921;-91
2023/10/16 14:46:11;;;;;;;;;;;;;;;;;;6092773;23;19921;-91
2023/10/16 14:48:37;;;;;;;;;;;;;;;;;;6059409;23;19924;-92
2023/10/16 14:51:04;;;;;;;;;;;;;;;;;;6080692;23;19921;-92
2023/10/16 14:53:30;;;;;;;;;;;;;;;;;;6061911;23;20305;-91
2023/10/16 14:55:58;;;;;;;;;;;;;;;;;;6061304;23;19932;-91
2023/10/16 14:58:25;;;;;;;;;;;;;;;;;;6064450;23;20485;-92
2023/10/16 15:00:56;;;;;;;;;;;;;;;;;;6060144;23;20215;-91
2023/10/16 15:03:22;;;;;;;;;;;;;;;;;;6083116;23;20356;-92
2023/10/16 15:05:49;;;;;;;;;;;;;;;;;;6056026;23;20019;-91
2023/10/16 15:08:15;;;;;;;;;;;;;;;;;;6083217;23;20212;-92
2023/10/16 15:10:43;;;;;;;;;;;;;;;;;;6081097;23;19927;-93
2023/10/16 15:13:09;;;;;;;;;;;;;;;;;;6081606;23;19925;-92
2023/10/16 21:28:08;;;;;;;;;;;;;;;;;;6158778;22;19929;-83
2023/10/16 21:34:10;;;;;;;;;;;;;;;;;;;;;
2023/10/16 21:37:00;;;;;;;;;;;;;;;;;;6172719;23;19924;-83
2023/10/16 21:45:30;;;;;;;;;;;;;;;;;;6182567;23;19942;-83
2023/10/16 21:51:09;;;;;;;;;;;;;;;;;;;;;
2023/10/16 21:53:54;;;;;;;;;;;;;;;;;;6181853;23;19986;-84
2023/10/16 21:56:28;;;;;;;;;;;;;;;;;;6153820;23;19924;-84
2023/10/16 22:05:37;;;;;;;;;;;;;;;;;;6170137;23;20007;-83
2023/10/16 22:08:17;;;;;;;;;;;;;;;;;;6151736;23;19951;-83
2023/10/16 22:11:02;;;;;;;;;;;;;;;;;;;;;
2023/10/16 22:17:18;;;;;;;;;;;;;;;;;;;;;
2023/10/16 22:19:49;;;;;;;;;;;;;;;;;;6176490;23;20343;-84
2023/10/16 22:22:25;;;;;;;;;;;;;;;;;;6181934;23;19915;-83
2023/10/16 22:24:58;;;;;;;;;;;;;;;;;;6206397;23;19919;-83
2023/10/16 22:27:26;;;;;;;;;;;;;;;;;;6183287;23;19983;-83
2023/10/16 22:30:10;;;;;;;;;;;;;;;;;;;;;
2023/10/16 22:32:52;;;;;;;;;;;;;;;;;;;;;
2023/10/16 22:35:26;;;;;;;;;;;;;;;;;;6103683;23;19924;-84
2023/10/16 22:38:00;;;;;;;;;;;;;;;;;;6089666;23;19944;-84
2023/10/16 22:40:32;;;;;;;;;;;;;;;;;;6092556;23;19952;-84
2023/10/16 22:42:59;;;;;;;;;;;;;;;;;;6088962;23;20400;-83
2023/10/16 22:45:33;;;;;;;;;;;;;;;;;;6116473;23;19916;-84
2023/10/16 22:51:07;;;;;;;;;;;;;;;;;;6090825;23;19921;-84
2023/10/16 22:53:39;;;;;;;;;;;;;;;;;;6113433;23;19975;-84
2023/10/16 22:56:10;;;;;;;;;;;;;;;;;;6116797;23;19924;-83
2023/10/16 22:58:51;;;;;;;;;;;;;;;;;;6090348;23;19960;-83
2023/10/16 23:01:24;;;;;;;;;;;;;;;;;;6090991;23;19927;-83
2023/10/16 23:04:08;;;;;;;;;;;;;;;;;;6146050;23;19919;-84
2023/10/16 23:06:49;;;;;;;;;;;;;;;;;;6174601;23;19991;-83
2023/10/16 23:09:32;;;;;;;;;;;;;;;;;;6176821;23;19920;-83
2023/10/16 23:12:13;;;;;;;;;;;;;;;;;;6148974;23;19931;-84
2023/10/16 23:14:39;;;;;;;;;;;;;;;;;;6174287;23;19994;-83
2023/10/16 23:17:20;;;;;;;;;;;;;;;;;;6150984;23;19920;-83
2023/10/16 23:19:47;;;;;;;;;;;;;;;;;;6149419;23;19926;-83
2023/10/16 23:22:21;;;;;;;;;;;;;;;;;;6153022;23;19924;-83
2023/10/16 23:24:47;;;;;;;;;;;;;;;;;;6149325;23;19943;-83
2023/10/16 23:27:16;;;;;;;;;;;;;;;;;;6149327;23;19930;-83
2023/10/16 23:33:09;;;;;;;;;;;;;;;;;;6180302;23;20334;-84
2023/10/16 23:35:41;;;;;;;;;;;;;;;;;;6149180;23;19924;-83
2023/10/16 23:38:12;;;;;;;;;;;;;;;;;;6176943;23;19923;-84
2023/10/16 23:41:03;;;;;;;;;;;;;;;;;;6176432;23;19919;-83
2023/10/16 23:46:45;;;;;;;;;;;;;;;;;;6056114;23;19924;-83
2023/10/16 23:49:26;;;;;;;;;;;;;;;;;;6033830;23;19961;-84
2023/10/16 23:55:09;;;;;;;;;;;;;;;;;;5995300;23;20352;-83
2023/10/16 23:57:50;;;;;;;;;;;;;;;;;;6065960;23;19920;-83
